Terminal Aerodrome Forecast
Issued by NWS

Home | Current Version | Previous Version | Text Only | Print | Product List | Glossary On
Versions: 1 2 3 4 5 6 7 8 9 10 11 12 13 14 15 16 17
000
FTPQ31 PGUM 270538
TAFGUM
TAF

TAF
PTRO 270538Z 2706/2806 08010KT P6SM VCSH SCT015 BKN040 OVC100
      TEMPO 2706/2710 08010G19KT 3SM SHRA BKN014 OVC030=

USA.gov is the U.S. government's official web portal to all federal, state and local government web resources and services.